Time;durP1;ratioP1;P1;durP2;ratioP2;P2;SDS_P1;SDS_P2;PMS_P1;PMS_P2;Temp;Humidity;BMP_temperature;BMP_pressure;BME280_temperature;BME280_humidity;BME280_pressure;Samples;Min_cycle;Max_cycle;Signal;HPM_P1;HPM_P2
2022/07/02 00:00:57;;;;;;;9.02;2.55;;;;;;;13.40;100.00;101871.97;4991305;28;20581;-43
2022/07/02 00:03:34;;;;;;;4.55;2.25;;;;;;;13.51;100.00;101874.31;4975117;28;20640;-42
2022/07/02 00:06:02;;;;;;;8.32;2.58;;;;;;;13.48;100.00;101874.44;4992747;28;20587;-43
2022/07/02 00:08:29;;;;;;;6.05;2.53;;;;;;;13.43;100.00;101876.41;4992397;28;20205;-44
2022/07/02 00:10:56;;;;;;;8.60;2.67;;;;;;;13.44;100.00;101873.66;4992567;28;20655;-43
2022/07/02 00:13:23;;;;;;;3.70;2.30;;;;;;;13.50;100.00;101884.22;4991896;28;20170;-42
2022/07/02 00:15:49;;;;;;;5.75;2.70;;;;;;;13.56;100.00;101878.63;4992670;28;20173;-45
2022/07/02 00:18:15;;;;;;;3.88;2.22;;;;;;;13.55;100.00;101878.66;4992139;28;20197;-41
2022/07/02 00:20:42;;;;;;;5.60;2.20;;;;;;;13.55;100.00;101879.53;4992661;28;20629;-45
2022/07/02 00:23:08;;;;;;;5.45;1.80;;;;;;;13.53;100.00;101872.47;4992205;28;20165;-44
2022/07/02 00:25:42;;;;;;;6.25;2.33;;;;;;;13.39;100.00;101872.94;4992055;28;20177;-44
2022/07/02 00:28:14;;;;;;;4.20;2.20;;;;;;;13.41;100.00;101879.16;4992403;28;20207;-45
2022/07/02 00:30:43;;;;;;;5.30;2.08;;;;;;;13.31;100.00;101872.31;4992275;28;20280;-43
2022/07/02 00:33:14;;;;;;;5.35;2.15;;;;;;;13.15;100.00;101872.75;4974129;28;20173;-48
2022/07/02 00:35:41;;;;;;;5.55;2.60;;;;;;;13.28;100.00;101880.44;4992053;28;20648;-47
2022/07/02 00:38:07;;;;;;;6.32;2.92;;;;;;;13.23;100.00;101886.00;4991927;28;20656;-48
2022/07/02 00:40:33;;;;;;;4.07;2.40;;;;;;;13.13;100.00;101877.31;4992178;28;20174;-46
2022/07/02 00:42:59;;;;;;;7.65;2.75;;;;;;;13.15;100.00;101872.75;4991354;28;20632;-48
2022/07/02 00:45:26;;;;;;;4.10;2.22;;;;;;;13.13;100.00;101876.44;4991695;28;20256;-47
2022/07/02 00:47:54;;;;;;;6.95;2.10;;;;;;;13.10;100.00;101873.88;4991438;28;20353;-47
2022/07/02 00:50:22;;;;;;;8.05;2.28;;;;;;;13.10;100.00;101877.44;4974248;28;20549;-47
2022/07/02 00:52:47;;;;;;;4.05;2.38;;;;;;;13.15;100.00;101874.59;4990410;28;20178;-47
2022/07/02 00:55:13;;;;;;;4.63;2.03;;;;;;;13.18;100.00;101875.38;4990670;28;20492;-47
2022/07/02 00:57:39;;;;;;;6.60;2.47;;;;;;;12.99;100.00;101877.75;4991479;28;20240;-46
2022/07/02 01:00:06;;;;;;;6.07;2.58;;;;;;;12.93;100.00;101875.25;4991078;28;20169;-46
2022/07/02 01:02:35;;;;;;;4.82;2.28;;;;;;;12.96;100.00;101877.84;4991462;28;20177;-48
2022/07/02 01:05:01;;;;;;;9.07;3.10;;;;;;;12.89;100.00;101878.97;4991012;28;20173;-47
2022/07/02 01:07:28;;;;;;;3.35;2.20;;;;;;;12.93;100.00;101877.94;4991118;28;20212;-46
2022/07/02 01:12:41;;;;;;;7.72;3.13;;;;;;;12.87;100.00;101867.38;4991214;28;20174;-47
2022/07/02 01:15:08;;;;;;;5.63;2.35;;;;;;;12.81;100.00;101869.38;4990996;28;20316;-47
2022/07/02 01:17:33;;;;;;;6.03;2.67;;;;;;;12.74;100.00;101874.94;4991100;28;20292;-46
2022/07/02 01:19:58;;;;;;;9.35;3.17;;;;;;;12.66;100.00;101866.25;4991334;28;20197;-49
2022/07/02 01:22:31;;;;;;;7.05;2.75;;;;;;;12.67;100.00;101872.50;4991415;28;20178;-49
2022/07/02 01:24:57;;;;;;;5.57;2.33;;;;;;;12.66;100.00;101870.72;4990153;28;20723;-47
2022/07/02 01:27:23;;;;;;;7.53;3.28;;;;;;;12.59;100.00;101872.72;4990973;28;20201;-48
2022/07/02 01:29:49;;;;;;;5.60;2.10;;;;;;;12.68;100.00;101877.84;4990681;28;20169;-49
2022/07/02 01:32:15;;;;;;;5.13;2.40;;;;;;;12.73;100.00;101872.31;4990894;28;20166;-49
2022/07/02 01:34:52;;;;;;;3.80;2.40;;;;;;;12.74;100.00;101879.44;4990688;28;20554;-48
2022/07/02 01:37:20;;;;;;;4.03;2.65;;;;;;;12.57;100.00;101890.69;4990588;28;20197;-48
2022/07/02 01:39:47;;;;;;;4.75;2.22;;;;;;;12.55;100.00;101897.91;4990885;28;20672;-46
2022/07/02 01:42:14;;;;;;;4.00;2.25;;;;;;;12.55;100.00;101882.69;4990398;28;20176;-49
2022/07/02 01:44:41;;;;;;;3.88;2.20;;;;;;;12.55;100.00;101882.69;4990564;28;20188;-47
2022/07/02 01:47:11;;;;;;;7.47;2.30;;;;;;;12.50;100.00;101890.00;4990816;28;20197;-49
2022/07/02 01:49:38;;;;;;;7.13;2.60;;;;;;;12.43;100.00;101884.88;4990878;28;20209;-47
2022/07/02 01:52:05;;;;;;;7.00;2.50;;;;;;;12.45;100.00;101891.94;4958376;28;20193;-48
2022/07/02 01:54:31;;;;;;;2.83;2.47;;;;;;;12.32;100.00;101893.22;4970491;28;20181;-48
2022/07/02 01:56:57;;;;;;;3.28;2.83;;;;;;;12.30;100.00;101892.38;4978634;28;20688;-48
2022/07/02 01:59:23;;;;;;;4.47;2.40;;;;;;;12.35;100.00;101893.13;4989939;28;20221;-48
2022/07/02 02:01:48;;;;;;;3.72;2.30;;;;;;;12.26;100.00;101902.31;4990556;28;20220;-47
2022/07/02 02:04:14;;;;;;;3.28;2.30;;;;;;;12.34;100.00;101900.31;4990219;28;20166;-48
2022/07/02 02:06:40;;;;;;;3.67;2.40;;;;;;;12.37;100.00;101907.41;4990246;28;20208;-47
2022/07/02 02:09:06;;;;;;;6.97;2.90;;;;;;;12.19;100.00;101916.88;4990626;28;20194;-48
2022/07/02 02:11:31;;;;;;;6.32;2.50;;;;;;;12.22;100.00;101911.41;4990510;28;20255;-48
2022/07/02 02:13:58;;;;;;;6.88;2.78;;;;;;;12.26;100.00;101914.88;4989649;28;20173;-47
2022/07/02 02:16:28;;;;;;;5.13;2.65;;;;;;;12.10;100.00;101915.31;4989765;28;20727;-48
2022/07/02 02:18:55;;;;;;;3.78;2.42;;;;;;;12.18;100.00;101915.13;4990288;28;20169;-48
2022/07/02 02:21:21;;;;;;;4.75;3.15;;;;;;;12.18;100.00;101920.50;4990165;28;20189;-46
2022/07/02 02:23:47;;;;;;;3.55;2.78;;;;;;;12.14;100.00;101918.81;4990317;28;20280;-49
2022/07/02 02:26:12;;;;;;;7.50;5.35;;;;;;;12.23;100.00;101910.50;4994119;28;20256;-48
2022/07/02 02:28:38;;;;;;;7.10;4.55;;;;;;;12.27;100.00;101911.31;4993329;28;20618;-47
2022/07/02 02:31:04;;;;;;;11.90;5.40;;;;;;;12.28;100.00;101904.97;4994086;28;20258;-50
2022/07/02 02:33:29;;;;;;;8.70;4.28;;;;;;;12.40;100.00;101906.44;4993173;28;20169;-48
2022/07/02 02:35:55;;;;;;;12.25;5.63;;;;;;;12.47;100.00;101908.91;4993972;28;20224;-49
2022/07/02 02:38:20;;;;;;;9.52;5.45;;;;;;;12.44;100.00;101917.09;4993449;28;20684;-48
2022/07/02 02:40:45;;;;;;;13.98;6.70;;;;;;;12.48;100.00;101916.03;4993554;28;20257;-48
2022/07/02 02:43:11;;;;;;;11.45;6.88;;;;;;;12.53;100.00;101919.50;4993210;28;20580;-48
2022/07/02 02:45:36;;;;;;;10.88;6.82;;;;;;;12.62;100.00;101923.72;4976227;28;20181;-47
2022/07/02 02:48:02;;;;;;;11.05;6.75;;;;;;;12.69;100.00;101917.22;4993216;28;20836;-47
2022/07/02 02:50:28;;;;;;;10.65;7.05;;;;;;;12.74;100.00;101933.22;4993819;28;20161;-50
2022/07/02 02:52:53;;;;;;;11.02;7.07;;;;;;;12.73;100.00;101929.66;4993401;28;20664;-47
2022/07/02 02:55:19;;;;;;;9.32;6.45;;;;;;;12.74;100.00;101917.97;4993548;28;20498;-48
2022/07/02 02:57:44;;;;;;;9.43;6.07;;;;;;;12.78;100.00;101916.06;4975655;28;20197;-48
2022/07/02 03:00:10;;;;;;;12.32;6.32;;;;;;;12.78;100.00;101919.63;4993589;28;20205;-49
2022/07/02 03:02:36;;;;;;;9.98;6.88;;;;;;;12.74;100.00;101917.97;4992950;28;20184;-48
2022/07/02 03:05:02;;;;;;;11.73;6.70;;;;;;;12.77;100.00;101928.66;4992731;28;20557;-47
2022/07/02 03:07:27;;;;;;;8.70;6.80;;;;;;;12.73;100.00;101931.47;4993285;28;20200;-47
2022/07/02 03:09:53;;;;;;;10.32;6.43;;;;;;;12.73;100.00;101921.59;4993391;28;20174;-50
2022/07/02 03:12:18;;;;;;;12.27;6.72;;;;;;;12.69;100.00;101930.69;4993413;28;20205;-48
2022/07/02 03:14:44;;;;;;;8.75;6.25;;;;;;;12.72;100.00;101933.25;4992434;28;20268;-47
2022/07/02 03:17:10;;;;;;;9.18;7.20;;;;;;;12.70;100.00;101939.63;4993297;28;20704;-49
2022/07/02 03:19:35;;;;;;;11.95;7.55;;;;;;;12.72;100.00;101944.00;4993583;28;20172;-49
2022/07/02 03:22:01;;;;;;;10.82;7.28;;;;;;;12.75;100.00;101938.56;4993023;28;20190;-48
2022/07/02 03:24:26;;;;;;;16.23;8.02;;;;;;;12.74;100.00;101942.16;4992858;28;20555;-46
2022/07/02 03:26:52;;;;;;;11.77;7.82;;;;;;;12.71;100.00;101942.28;4993112;28;20233;-48
2022/07/02 03:29:17;;;;;;;9.48;8.02;;;;;;;12.76;100.00;101934.94;4992698;28;20659;-48
2022/07/02 03:31:42;;;;;;;11.32;8.50;;;;;;;12.74;100.00;101944.84;4993381;28;20205;-48
2022/07/02 03:34:08;;;;;;;10.35;7.97;;;;;;;12.78;100.00;101938.47;4992322;28;20613;-48
2022/07/02 03:36:33;;;;;;;15.95;10.23;;;;;;;12.75;100.00;101946.63;4993236;28;20272;-47
2022/07/02 03:38:59;;;;;;;14.30;9.50;;;;;;;12.75;100.00;101949.31;4993244;28;20166;-47
2022/07/02 03:41:24;;;;;;;11.55;9.55;;;;;;;12.81;100.00;101952.75;4993041;28;20244;-48
2022/07/02 03:43:50;;;;;;;14.38;10.77;;;;;;;12.81;100.00;101948.25;4992322;28;20169;-47
2022/07/02 03:46:17;;;;;;;15.40;10.80;;;;;;;12.81;100.00;101947.38;4992553;28;20220;-49
2022/07/02 03:48:43;;;;;;;14.00;10.50;;;;;;;12.85;100.00;101946.34;4993276;28;20189;-49
2022/07/02 03:51:09;;;;;;;16.67;11.30;;;;;;;12.86;100.00;101943.63;4984844;28;20229;-50
2022/07/02 03:53:34;;;;;;;17.73;11.60;;;;;;;12.90;100.00;101947.09;4955093;28;20178;-49
2022/07/02 03:56:01;;;;;;;16.17;11.95;;;;;;;12.92;100.00;101951.53;4979203;28;20619;-48
2022/07/02 03:58:27;;;;;;;16.23;12.55;;;;;;;12.94;100.00;101955.06;4992147;28;20744;-48
2022/07/02 04:00:52;;;;;;;18.98;13.35;;;;;;;12.96;100.00;101960.34;4992857;28;20251;-49
2022/07/02 04:03:18;;;;;;;15.27;12.55;;;;;;;13.04;100.00;101957.44;4990523;28;20189;-47
2022/07/02 04:05:43;;;;;;;19.95;12.48;;;;;;;12.98;100.00;101950.44;4992156;28;20193;-50
2022/07/02 04:08:09;;;;;;;18.58;12.98;;;;;;;13.02;100.00;101954.81;4992320;28;20225;-49
2022/07/02 04:10:34;;;;;;;16.65;13.13;;;;;;;13.09;100.00;101960.88;4992378;28;20166;-47
2022/07/02 04:13:01;;;;;;;17.38;13.00;;;;;;;13.12;100.00;101964.38;4992021;28;20748;-46
2022/07/02 04:15:27;;;;;;;16.98;11.98;;;;;;;13.18;100.00;101969.56;4992400;28;20177;-46
2022/07/02 04:17:52;;;;;;;19.70;13.10;;;;;;;13.22;100.00;101969.44;4992529;28;20617;-48
2022/07/02 04:20:18;;;;;;;18.05;12.77;;;;;;;13.21;100.00;101965.88;4992228;28;20260;-49
2022/07/02 04:22:43;;;;;;;18.13;12.45;;;;;;;13.28;100.00;101955.81;4992430;28;20268;-50
2022/07/02 04:25:09;;;;;;;18.30;12.98;;;;;;;13.30;100.00;101957.56;4991634;28;20181;-48
2022/07/02 04:27:34;;;;;;;18.10;12.23;;;;;;;13.32;100.00;101954.81;4991824;28;20240;-46
2022/07/02 04:30:00;;;;;;;15.05;11.70;;;;;;;13.37;100.00;101959.13;4992463;28;20265;-48
2022/07/02 04:32:25;;;;;;;18.48;11.70;;;;;;;13.38;100.00;101965.38;4991935;28;20541;-49
2022/07/02 04:34:51;;;;;;;14.50;11.98;;;;;;;13.43;100.00;101959.88;4991607;28;20177;-47
2022/07/02 04:37:16;;;;;;;15.85;11.73;;;;;;;13.47;100.00;101966.88;4992108;28;20910;-47
2022/07/02 04:39:42;;;;;;;19.67;11.05;;;;;;;13.54;100.00;101957.72;4991707;28;20162;-49
2022/07/02 04:42:08;;;;;;;18.35;11.52;;;;;;;13.58;100.00;101954.84;4992305;28;20185;-49
2022/07/02 04:44:33;;;;;;;20.75;11.48;;;;;;;13.67;100.00;101958.19;4991406;28;20173;-47
2022/07/02 04:46:59;;;;;;;13.50;10.88;;;;;;;13.70;100.00;101958.06;4991216;28;20205;-50
2022/07/02 04:49:24;;;;;;;11.18;9.25;;;;;;;13.74;100.00;101967.81;4991936;28;20201;-49
2022/07/02 04:51:50;;;;;;;13.32;9.68;;;;;;;13.81;100.00;101966.66;4991334;28;20232;-47
2022/07/02 04:54:15;;;;;;;14.00;10.15;;;;;;;13.89;100.00;101964.59;4991535;28;20633;-49
2022/07/02 04:56:41;;;;;;;9.73;8.73;;;;;;;13.94;100.00;101965.31;4990906;28;20576;-48
2022/07/02 04:59:06;;;;;;;11.20;8.63;;;;;;;14.13;100.00;101972.78;4991904;28;20162;-48
2022/07/02 05:01:32;;;;;;;12.90;8.60;;;;;;;14.18;100.00;101965.41;4991437;28;20655;-48
2022/07/02 05:03:57;;;;;;;12.13;8.35;;;;;;;14.24;100.00;101975.13;4988576;28;20592;-47
2022/07/02 05:06:23;;;;;;;12.73;8.25;;;;;;;14.40;100.00;101968.22;4979176;28;20189;-49
2022/07/02 05:08:49;;;;;;;11.20;7.72;;;;;;;14.46;100.00;101973.41;4990833;28;20198;-49
2022/07/02 05:11:16;;;;;;;13.70;7.60;;;;;;;14.53;100.00;101974.94;4991191;28;20173;-46
2022/07/02 05:13:47;;;;;;;11.82;6.72;;;;;;;14.63;100.00;101975.53;4990787;28;20177;-48
2022/07/02 05:16:13;;;;;;;10.60;6.50;;;;;;;14.74;100.00;101986.78;4991332;28;20169;-46
2022/07/02 05:18:39;;;;;;;8.90;6.53;;;;;;;14.82;100.00;101978.41;4991303;28;20652;-48
2022/07/02 05:21:05;;;;;;;13.35;6.57;;;;;;;14.93;100.00;101983.38;4991142;28;20270;-47
2022/07/02 05:23:30;;;;;;;6.32;5.25;;;;;;;14.98;100.00;101989.50;4990815;28;20931;-47
2022/07/02 05:25:56;;;;;;;9.38;5.82;;;;;;;15.08;100.00;101999.00;4991067;28;20188;-48
2022/07/02 05:28:21;;;;;;;9.10;5.75;;;;;;;15.12;99.43;101984.44;4991242;28;20208;-47
2022/07/02 05:30:47;;;;;;;9.10;4.80;;;;;;;15.12;98.94;101992.53;4991144;28;20293;-48
2022/07/02 05:33:12;;;;;;;7.40;5.05;;;;;;;15.17;98.65;101997.75;4990648;28;20172;-47
2022/07/02 05:35:38;;;;;;;8.55;5.05;;;;;;;15.33;98.11;101989.97;4990558;28;20308;-48
2022/07/02 05:38:03;;;;;;;12.43;4.95;;;;;;;15.28;97.44;101997.34;4989850;28;20328;-47
2022/07/02 05:40:29;;;;;;;6.78;4.63;;;;;;;15.43;96.92;101999.44;4990722;28;20272;-49
2022/07/02 05:42:54;;;;;;;8.75;5.10;;;;;;;15.50;95.75;102000.94;4989712;28;20189;-46
2022/07/02 05:45:20;;;;;;;9.05;4.53;;;;;;;15.65;95.20;102005.75;4990541;28;20181;-47
2022/07/02 05:47:45;;;;;;;12.10;4.15;;;;;;;15.58;94.69;101998.81;4990222;28;20201;-48
2022/07/02 05:50:11;;;;;;;7.15;3.78;;;;;;;15.66;94.31;102004.81;4990847;28;20264;-47
2022/07/02 05:52:36;;;;;;;6.78;3.30;;;;;;;15.81;93.72;102000.63;4971606;28;20527;-47
2022/07/02 05:55:02;;;;;;;10.25;3.65;;;;;;;15.92;92.93;102000.19;4970055;28;20182;-46
2022/07/02 05:57:29;;;;;;;5.43;3.47;;;;;;;15.99;92.88;102001.69;4970825;28;20201;-46
2022/07/02 05:59:55;;;;;;;6.03;3.70;;;;;;;15.98;92.94;102002.63;4953286;28;20167;-48
2022/07/02 06:02:21;;;;;;;8.60;3.42;;;;;;;16.06;92.44;102010.41;4971361;28;20236;-48
2022/07/02 06:04:46;;;;;;;7.18;3.30;;;;;;;15.98;92.02;102009.84;4970005;28;20174;-46
2022/07/02 06:09:56;;;;;;;4.47;2.92;;;;;;;16.32;90.28;102030.94;4988753;28;20657;-47
2022/07/02 06:12:22;;;;;;;6.05;2.95;;;;;;;16.44;89.61;102024.09;4990485;28;20208;-47
2022/07/02 06:14:47;;;;;;;4.38;2.60;;;;;;;16.59;89.36;102023.41;4972781;28;20205;-47
2022/07/02 06:17:13;;;;;;;3.80;2.30;;;;;;;16.81;88.18;102034.19;4971135;28;20651;-49
2022/07/02 06:19:39;;;;;;;5.57;2.75;;;;;;;17.06;86.97;102033.09;4973387;28;20569;-49
2022/07/02 06:22:05;;;;;;;7.60;3.05;;;;;;;17.20;85.45;102032.44;4953851;28;20308;-44
2022/07/02 06:24:31;;;;;;;6.20;2.75;;;;;;;17.38;84.73;102041.53;4989379;28;20181;-45
2022/07/02 06:26:56;;;;;;;6.32;2.47;;;;;;;17.43;83.93;102045.78;4990092;28;20870;-45
2022/07/02 06:29:22;;;;;;;5.45;2.88;;;;;;;17.53;82.08;102054.34;4990399;28;20296;-46
2022/07/02 06:31:48;;;;;;;6.78;2.80;;;;;;;17.78;81.07;102043.19;4989979;28;20185;-46
2022/07/02 06:34:13;;;;;;;5.97;2.17;;;;;;;17.91;80.44;102051.66;4989958;28;20191;-46
2022/07/02 06:36:41;;;;;;;2.80;1.70;;;;;;;17.85;80.29;102041.97;4989828;28;20291;-46
2022/07/02 06:39:06;;;;;;;4.28;1.90;;;;;;;18.04;78.30;102038.34;4990069;28;20220;-44
2022/07/02 06:44:16;;;;;;;4.40;1.80;;;;;;;18.42;76.79;102044.50;4989791;28;20180;-46
2022/07/02 06:46:42;;;;;;;6.63;1.40;;;;;;;18.57;76.93;102051.00;4990226;28;20189;-46
2022/07/02 06:49:07;;;;;;;7.60;1.52;;;;;;;18.87;75.30;102045.81;4990071;28;20266;-46
2022/07/02 06:51:33;;;;;;;4.95;1.70;;;;;;;18.83;73.69;102055.06;4989770;28;20212;-46
2022/07/02 06:54:01;;;;;;;5.22;1.92;;;;;;;18.86;73.13;102046.75;4985457;28;20201;-47
2022/07/02 06:56:35;;;;;;;3.20;1.63;;;;;;;18.67;74.19;102048.66;4989659;28;20232;-46
2022/07/02 06:59:01;;;;;;;2.78;1.38;;;;;;;18.91;73.95;102052.84;4990002;28;20223;-46
2022/07/02 07:01:27;;;;;;;6.25;1.33;;;;;;;19.52;73.34;102051.25;4989943;28;20667;-46
2022/07/02 07:03:52;;;;;;;6.53;1.85;;;;;;;19.51;71.68;102045.94;4989472;28;20192;-46
2022/07/02 07:06:21;;;;;;;3.63;1.40;;;;;;;19.62;70.96;102046.19;4990022;28;20185;-46
2022/07/02 07:08:52;;;;;;;3.33;1.40;;;;;;;19.37;70.46;102057.56;4989680;28;20209;-46
2022/07/02 07:11:19;;;;;;;1.75;1.10;;;;;;;18.98;70.26;102061.53;4993469;28;20205;-45
2022/07/02 07:13:45;;;;;;;3.25;1.45;;;;;;;19.30;70.02;102067.03;4992622;28;20205;-46
2022/07/02 07:16:10;;;;;;;5.18;1.30;;;;;;;19.64;70.83;102066.03;4993054;28;20652;-45
2022/07/02 07:18:35;;;;;;;7.40;1.58;;;;;;;19.26;70.46;102054.56;4993669;28;20549;-45
2022/07/02 07:21:01;;;;;;;6.03;1.30;;;;;;;19.67;69.01;102057.69;4993244;28;20188;-45
2022/07/02 07:23:26;;;;;;;6.95;1.55;;;;;;;19.75;68.15;102060.88;4992567;28;20919;-45
2022/07/02 07:25:52;;;;;;;4.47;1.20;;;;;;;19.62;69.79;102046.19;4993276;28;20191;-46
2022/07/02 07:28:17;;;;;;;3.50;1.35;;;;;;;19.81;67.26;102045.16;4992663;28;20237;-46
2022/07/02 07:30:43;;;;;;;3.65;1.20;;;;;;;19.82;67.34;102044.22;4993391;28;20657;-46
2022/07/02 07:33:09;;;;;;;5.55;1.55;;;;;;;19.48;66.83;102063.31;4992797;28;20162;-45
2022/07/02 07:35:34;;;;;;;3.80;1.13;;;;;;;19.56;66.12;102055.56;4993227;28;20648;-47
2022/07/02 07:38:02;;;;;;;4.28;1.25;;;;;;;19.94;65.95;102059.81;4993063;28;20243;-46
2022/07/02 07:40:28;;;;;;;3.88;1.38;;;;;;;20.31;66.37;102050.38;4993066;28;20169;-45
2022/07/02 07:42:54;;;;;;;4.05;0.95;;;;;;;20.68;65.15;102045.41;4993172;28;20215;-46
2022/07/02 07:45:19;;;;;;;2.90;1.08;;;;;;;20.83;62.60;102043.59;4991198;28;20272;-45
2022/07/02 07:47:45;;;;;;;5.03;1.17;;;;;;;21.06;61.97;102044.03;4992696;28;20608;-44
2022/07/02 07:50:10;;;;;;;2.85;0.93;;;;;;;20.20;62.70;102046.50;4993122;28;20189;-46
2022/07/02 07:52:36;;;;;;;2.58;0.73;;;;;;;20.69;63.42;102046.31;4992618;28;20574;-47
2022/07/02 07:55:02;;;;;;;2.35;0.95;;;;;;;20.50;64.51;102051.97;4992431;28;20260;-46
2022/07/02 07:57:27;;;;;;;2.50;0.95;;;;;;;20.51;63.42;102056.44;4992850;28;20233;-46
2022/07/02 07:59:52;;;;;;;3.78;0.98;;;;;;;20.75;62.01;102052.25;4989882;28;20268;-44
2022/07/02 08:02:18;;;;;;;1.75;1.10;;;;;;;20.64;61.17;102062.03;4992232;28;20260;-47
2022/07/02 08:04:43;;;;;;;5.15;1.40;;;;;;;20.78;60.95;102062.97;4991804;28;20268;-45
2022/07/02 08:07:09;;;;;;;3.35;1.10;;;;;;;20.83;62.74;102061.81;4992594;28;20711;-45
2022/07/02 08:09:34;;;;;;;5.05;1.13;;;;;;;20.99;61.69;102063.47;4990639;28;20208;-46
2022/07/02 08:12:00;;;;;;;5.60;1.15;;;;;;;20.89;60.71;102055.97;4989436;28;20641;-45
2022/07/02 08:14:25;;;;;;;5.68;1.20;;;;;;;21.26;58.84;102059.97;4991497;28;20216;-46
2022/07/02 08:16:51;;;;;;;2.97;0.80;;;;;;;21.26;59.18;102059.09;4991917;28;20550;-46
2022/07/02 08:19:16;;;;;;;3.13;0.80;;;;;;;21.45;57.98;102058.81;4992200;28;20172;-45
2022/07/02 08:21:42;;;;;;;3.58;0.90;;;;;;;21.46;56.79;102058.72;4991283;28;20181;-46
2022/07/02 08:24:07;;;;;;;2.20;0.90;;;;;;;21.27;57.07;102064.44;4990741;28;20571;-45
2022/07/02 08:26:33;;;;;;;3.38;0.95;;;;;;;21.12;58.17;102066.31;4989079;28;20291;-44
2022/07/02 08:28:58;;;;;;;1.52;0.82;;;;;;;21.27;57.68;102066.28;4991515;28;20308;-45
2022/07/02 08:31:24;;;;;;;2.67;0.77;;;;;;;21.09;58.53;102074.66;4992273;28;20605;-45
2022/07/02 08:33:49;;;;;;;2.65;0.68;;;;;;;21.25;58.51;102071.84;4991648;28;20228;-45
2022/07/02 08:36:15;;;;;;;2.80;0.80;;;;;;;21.96;56.68;102067.28;4991568;28;20188;-44
2022/07/02 08:38:40;;;;;;;2.80;0.80;;;;;;;21.79;55.07;102061.09;4992399;28;20180;-45
2022/07/02 08:41:07;;;;;;;2.35;0.75;;;;;;;21.22;54.12;102057.56;4991775;28;20289;-45
2022/07/02 08:43:35;;;;;;;3.75;0.88;;;;;;;22.07;54.74;102053.81;4991372;28;20161;-45
2022/07/02 08:46:02;;;;;;;3.20;1.00;;;;;;;21.99;54.90;102064.34;4991918;28;20168;-45
2022/07/02 08:48:32;;;;;;;2.10;0.63;;;;;;;21.97;54.85;102066.31;4991578;28;20310;-46
2022/07/02 08:50:57;;;;;;;2.25;0.90;;;;;;;22.31;52.62;102053.16;4991597;28;20185;-45
2022/07/02 08:53:23;;;;;;;4.90;0.95;;;;;;;22.07;53.75;102055.66;4991395;28;20164;-48
2022/07/02 08:55:50;;;;;;;4.65;0.93;;;;;;;21.84;52.60;102068.09;4991891;28;20181;-45
2022/07/02 08:58:16;;;;;;;2.70;0.85;;;;;;;21.91;53.62;102066.72;4991416;28;20703;-44
2022/07/02 09:00:42;;;;;;;2.65;0.93;;;;;;;21.94;55.23;102070.13;4991910;28;20235;-45
2022/07/02 09:03:09;;;;;;;4.25;0.95;;;;;;;22.17;55.03;102074.06;4988762;28;20185;-44
2022/07/02 09:05:37;;;;;;;4.63;0.85;;;;;;;22.38;53.26;102068.13;4991166;28;20219;-45
2022/07/02 09:08:05;;;;;;;2.55;1.10;;;;;;;22.01;53.92;102076.91;4991135;28;20291;-47
2022/07/02 09:10:31;;;;;;;2.30;0.70;;;;;;;21.75;53.07;102070.44;4991174;28;20183;-44
2022/07/02 09:12:58;;;;;;;4.20;1.20;;;;;;;21.73;54.00;102080.59;4990711;28;20169;-46
2022/07/02 09:15:24;;;;;;;2.50;0.90;;;;;;;22.36;53.83;102065.50;4983627;28;20188;-46
2022/07/02 09:17:50;;;;;;;3.10;0.70;;;;;;;22.20;52.84;102082.03;4990423;28;20648;-44
2022/07/02 09:20:16;;;;;;;3.40;0.80;;;;;;;21.89;52.67;102076.88;4990762;28;20185;-46
2022/07/02 09:22:45;;;;;;;2.72;0.70;;;;;;;22.12;51.12;102072.59;4991422;28;20200;-44
2022/07/02 09:25:14;;;;;;;4.47;1.00;;;;;;;21.78;51.99;102086.63;4990461;28;20196;-43
2022/07/02 09:27:40;;;;;;;5.18;0.98;;;;;;;22.04;54.01;102072.22;4973411;28;20659;-45
2022/07/02 09:30:08;;;;;;;1.58;0.80;;;;;;;22.01;53.38;102070.59;4991200;28;20263;-46
2022/07/02 09:32:39;;;;;;;4.97;0.90;;;;;;;22.51;54.78;102077.22;4990758;28;20219;-46
2022/07/02 09:35:05;;;;;;;5.05;1.00;;;;;;;22.05;53.46;102071.28;4990485;28;20248;-46
2022/07/02 09:37:31;;;;;;;3.22;1.00;;;;;;;21.93;53.94;102073.84;4990687;28;20355;-49
2022/07/02 09:40:00;;;;;;;3.63;1.13;;;;;;;22.06;53.75;102071.13;4990910;28;20169;-46
2022/07/02 09:42:34;;;;;;;5.07;0.90;;;;;;;22.76;54.28;102067.31;4974137;28;20178;-48
2022/07/02 09:45:05;;;;;;;1.98;0.90;;;;;;;23.37;51.38;102054.75;4953779;28;20162;-47
2022/07/02 09:47:35;;;;;;;3.55;0.90;;;;;;;23.17;51.77;102061.69;4971383;28;20347;-46
2022/07/02 09:50:04;;;;;;;6.13;1.00;;;;;;;23.03;52.22;102056.34;4953669;28;20290;-48
2022/07/02 09:52:30;;;;;;;4.68;1.02;;;;;;;23.09;50.91;102044.97;4971069;28;20185;-46
2022/07/02 09:54:55;;;;;;;2.78;1.00;;;;;;;23.06;51.60;102052.50;4970801;28;20703;-47
2022/07/02 09:57:21;;;;;;;4.88;0.90;;;;;;;23.27;51.34;102048.22;4970931;28;20300;-48
2022/07/02 09:59:46;;;;;;;3.97;1.00;;;;;;;22.69;50.18;102046.88;4971252;28;20586;-46
2022/07/02 10:02:22;;;;;;;2.78;0.80;;;;;;;22.42;49.49;102050.56;4970773;28;20181;-48
2022/07/02 10:04:51;;;;;;;4.03;1.10;;;;;;;22.66;51.27;102058.91;4953307;28;20305;-46
2022/07/02 10:07:17;;;;;;;4.40;0.80;;;;;;;21.72;53.03;102056.16;4953757;28;20197;-46
2022/07/02 10:09:46;;;;;;;5.45;1.00;;;;;;;22.37;52.28;102053.63;4953647;28;20209;-46
2022/07/02 10:12:14;;;;;;;2.83;1.10;;;;;;;21.77;53.42;102057.59;4971251;28;20296;-47
2022/07/02 10:14:42;;;;;;;2.63;1.00;;;;;;;21.19;54.52;102059.50;4953471;28;20421;-48
2022/07/02 10:17:08;;;;;;;2.30;1.00;;;;;;;21.85;55.26;102058.97;4971054;28;20835;-47
2022/07/02 10:19:37;;;;;;;3.00;1.02;;;;;;;21.72;54.15;102059.75;4953623;28;20415;-47
2022/07/02 10:22:04;;;;;;;2.05;0.90;;;;;;;21.68;55.50;102055.47;4970722;28;20277;-49
2022/07/02 10:24:31;;;;;;;2.83;0.75;;;;;;;21.99;54.61;102065.22;4970296;28;20248;-46
2022/07/02 10:26:59;;;;;;;2.65;0.90;;;;;;;21.78;54.28;102059.34;4970569;28;20672;-47
2022/07/02 10:29:25;;;;;;;2.80;0.77;;;;;;;22.10;53.63;102069.09;4970875;28;20209;-48
2022/07/02 10:32:20;;;;;;;2.47;0.73;;;;;;;22.39;54.45;102053.47;4970853;28;20190;-47
2022/07/02 10:35:08;;;;;;;4.05;0.80;;;;;;;22.36;53.09;102046.38;4970369;28;20245;-46
2022/07/02 10:37:37;;;;;;;3.33;0.88;;;;;;;22.54;53.27;102051.56;4970944;28;20212;-47
2022/07/02 10:40:03;;;;;;;4.10;0.90;;;;;;;22.75;52.19;102051.91;4970560;28;20189;-48
2022/07/02 10:42:44;;;;;;;4.82;0.75;;;;;;;22.12;51.97;102051.63;4970564;28;20174;-48
2022/07/02 10:45:20;;;;;;;2.50;0.80;;;;;;;21.74;52.35;102059.66;4971916;28;20177;-48
2022/07/02 10:48:00;;;;;;;3.45;0.80;;;;;;;21.35;55.27;102063.97;4974473;28;20695;-48
2022/07/02 10:50:35;;;;;;;3.08;0.88;;;;;;;21.86;54.52;102063.41;4974051;28;20181;-47
2022/07/02 10:53:10;;;;;;;2.85;0.98;;;;;;;21.66;54.69;102073.78;4956422;28;20177;-47
2022/07/02 10:55:36;;;;;;;4.53;1.10;;;;;;;21.73;54.63;102057.91;4974313;28;20189;-48
2022/07/02 10:58:04;;;;;;;2.85;0.90;;;;;;;22.17;53.73;102044.03;4974115;28;20208;-47
2022/07/02 11:00:32;;;;;;;3.08;0.80;;;;;;;21.79;52.77;102050.19;4974304;28;20185;-45
2022/07/02 11:03:24;;;;;;;4.38;0.80;;;;;;;22.42;52.88;102053.28;4973720;28;20200;-50
2022/07/02 11:06:06;;;;;;;1.90;0.70;;;;;;;23.02;51.91;102040.91;4974110;28;20245;-48
2022/07/02 11:08:43;;;;;;;1.38;0.70;;;;;;;22.79;51.89;102040.66;4956988;28;20925;-49
2022/07/02 11:11:10;;;;;;;3.28;0.88;;;;;;;22.73;51.67;102032.03;4973863;28;20204;-48
2022/07/02 11:14:00;;;;;;;3.60;1.02;;;;;;;22.87;51.54;102034.66;4974242;28;20193;-46
2022/07/02 11:16:31;;;;;;;4.57;1.05;;;;;;;23.41;50.04;102037.13;4973553;28;20181;-46
2022/07/02 11:18:58;;;;;;;3.47;0.93;;;;;;;23.41;49.56;102031.66;4974232;28;20677;-45
2022/07/02 11:21:25;;;;;;;2.55;0.80;;;;;;;23.42;48.85;102027.97;4974260;28;20601;-46
2022/07/02 11:23:51;;;;;;;3.75;0.85;;;;;;;23.70;48.91;102028.63;4973018;28;20194;-46
2022/07/02 11:26:28;;;;;;;3.13;1.00;;;;;;;22.92;49.55;102034.34;4973277;28;20177;-49